sensor_id;sensor_type;location;lat;lon;timestamp;P1;durP1;ratioP1;P2;durP2;ratioP2
25615;SDS011;13482;48.234;13.006;2022-08-30T00:01:23;3.70;;;2.78;;
25615;SDS011;13482;48.234;13.006;2022-08-30T00:03:56;3.25;;;2.40;;
25615;SDS011;13482;48.234;13.006;2022-08-30T00:06:24;3.17;;;2.58;;
25615;SDS011;13482;48.234;13.006;2022-08-30T00:08:53;3.13;;;2.58;;
25615;SDS011;13482;48.234;13.006;2022-08-30T00:11:23;3.10;;;2.47;;
25615;SDS011;13482;48.234;13.006;2022-08-30T00:13:53;3.67;;;2.92;;
25615;SDS011;13482;48.234;13.006;2022-08-30T00:16:22;4.40;;;3.35;;
25615;SDS011;13482;48.234;13.006;2022-08-30T00:18:52;4.25;;;3.45;;
25615;SDS011;13482;48.234;13.006;2022-08-30T00:21:20;3.90;;;3.50;;
25615;SDS011;13482;48.234;13.006;2022-08-30T00:23:47;4.45;;;3.33;;
25615;SDS011;13482;48.234;13.006;2022-08-30T00:26:15;3.97;;;3.30;;
25615;SDS011;13482;48.234;13.006;2022-08-30T00:28:42;3.88;;;3.22;;
25615;SDS011;13482;48.234;13.006;2022-08-30T00:31:09;4.63;;;3.08;;
25615;SDS011;13482;48.234;13.006;2022-08-30T00:33:40;3.77;;;3.17;;
25615;SDS011;13482;48.234;13.006;2022-08-30T00:36:08;3.83;;;3.05;;
25615;SDS011;13482;48.234;13.006;2022-08-30T00:38:35;3.65;;;2.88;;
25615;SDS011;13482;48.234;13.006;2022-08-30T00:41:02;3.42;;;3.13;;
25615;SDS011;13482;48.234;13.006;2022-08-30T00:43:31;5.82;;;3.15;;
25615;SDS011;13482;48.234;13.006;2022-08-30T00:48:35;3.83;;;2.58;;
25615;SDS011;13482;48.234;13.006;2022-08-30T00:51:06;3.28;;;2.63;;
25615;SDS011;13482;48.234;13.006;2022-08-30T00:53:38;3.45;;;3.03;;
25615;SDS011;13482;48.234;13.006;2022-08-30T00:56:09;3.70;;;2.78;;
25615;SDS011;13482;48.234;13.006;2022-08-30T00:58:38;3.05;;;2.53;;
25615;SDS011;13482;48.234;13.006;2022-08-30T01:01:09;2.72;;;2.42;;
25615;SDS011;13482;48.234;13.006;2022-08-30T01:03:37;3.00;;;2.55;;
25615;SDS011;13482;48.234;13.006;2022-08-30T01:06:06;3.35;;;2.80;;
25615;SDS011;13482;48.234;13.006;2022-08-30T01:08:33;4.03;;;2.88;;
25615;SDS011;13482;48.234;13.006;2022-08-30T01:11:01;4.97;;;2.95;;
25615;SDS011;13482;48.234;13.006;2022-08-30T01:13:31;3.70;;;2.88;;
25615;SDS011;13482;48.234;13.006;2022-08-30T01:16:00;3.72;;;2.95;;
25615;SDS011;13482;48.234;13.006;2022-08-30T01:18:28;4.28;;;2.58;;
25615;SDS011;13482;48.234;13.006;2022-08-30T01:23:37;3.80;;;2.83;;
25615;SDS011;13482;48.234;13.006;2022-08-30T01:26:09;4.45;;;2.35;;
25615;SDS011;13482;48.234;13.006;2022-08-30T01:28:41;2.95;;;1.83;;
25615;SDS011;13482;48.234;13.006;2022-08-30T01:31:11;2.05;;;1.50;;
25615;SDS011;13482;48.234;13.006;2022-08-30T01:33:38;2.03;;;1.48;;
25615;SDS011;13482;48.234;13.006;2022-08-30T01:36:06;2.47;;;1.90;;
25615;SDS011;13482;48.234;13.006;2022-08-30T01:43:52;2.00;;;1.75;;
25615;SDS011;13482;48.234;13.006;2022-08-30T01:46:26;3.63;;;2.17;;
25615;SDS011;13482;48.234;13.006;2022-08-30T01:49:03;3.55;;;2.42;;
25615;SDS011;13482;48.234;13.006;2022-08-30T01:51:35;3.90;;;2.42;;
25615;SDS011;13482;48.234;13.006;2022-08-30T01:54:04;3.47;;;2.35;;
25615;SDS011;13482;48.234;13.006;2022-08-30T01:56:32;3.78;;;2.60;;
25615;SDS011;13482;48.234;13.006;2022-08-30T01:58:59;3.17;;;2.42;;
25615;SDS011;13482;48.234;13.006;2022-08-30T02:01:31;2.92;;;2.40;;
25615;SDS011;13482;48.234;13.006;2022-08-30T02:04:02;3.28;;;2.40;;
25615;SDS011;13482;48.234;13.006;2022-08-30T02:06:29;3.70;;;2.95;;
25615;SDS011;13482;48.234;13.006;2022-08-30T02:08:57;3.00;;;2.40;;
25615;SDS011;13482;48.234;13.006;2022-08-30T02:11:25;3.25;;;2.60;;
25615;SDS011;13482;48.234;13.006;2022-08-30T02:13:52;2.70;;;2.20;;
25615;SDS011;13482;48.234;13.006;2022-08-30T02:16:20;3.08;;;2.60;;
25615;SDS011;13482;48.234;13.006;2022-08-30T02:18:50;3.67;;;2.85;;
25615;SDS011;13482;48.234;13.006;2022-08-30T02:21:18;3.08;;;2.60;;
25615;SDS011;13482;48.234;13.006;2022-08-30T02:23:46;3.20;;;2.70;;
25615;SDS011;13482;48.234;13.006;2022-08-30T02:26:13;3.22;;;2.80;;
25615;SDS011;13482;48.234;13.006;2022-08-30T02:28:41;3.40;;;2.80;;
25615;SDS011;13482;48.234;13.006;2022-08-30T02:31:15;6.65;;;2.97;;
25615;SDS011;13482;48.234;13.006;2022-08-30T02:33:46;3.10;;;2.60;;
25615;SDS011;13482;48.234;13.006;2022-08-30T02:36:15;3.17;;;2.78;;
25615;SDS011;13482;48.234;13.006;2022-08-30T02:38:44;4.65;;;3.03;;
25615;SDS011;13482;48.234;13.006;2022-08-30T02:41:12;3.80;;;2.90;;
25615;SDS011;13482;48.234;13.006;2022-08-30T02:43:39;3.08;;;2.70;;
25615;SDS011;13482;48.234;13.006;2022-08-30T02:46:07;3.50;;;2.95;;
25615;SDS011;13482;48.234;13.006;2022-08-30T02:48:34;3.40;;;2.65;;
25615;SDS011;13482;48.234;13.006;2022-08-30T02:51:06;3.13;;;2.60;;
25615;SDS011;13482;48.234;13.006;2022-08-30T02:53:38;3.95;;;2.90;;
25615;SDS011;13482;48.234;13.006;2022-08-30T02:56:07;3.40;;;2.67;;
25615;SDS011;13482;48.234;13.006;2022-08-30T02:58:36;4.13;;;3.00;;
25615;SDS011;13482;48.234;13.006;2022-08-30T03:01:04;3.58;;;3.17;;
25615;SDS011;13482;48.234;13.006;2022-08-30T03:03:31;4.57;;;3.30;;
25615;SDS011;13482;48.234;13.006;2022-08-30T03:05:59;4.53;;;3.33;;
25615;SDS011;13482;48.234;13.006;2022-08-30T03:08:29;5.72;;;4.00;;
25615;SDS011;13482;48.234;13.006;2022-08-30T03:10:58;3.95;;;3.15;;
25615;SDS011;13482;48.234;13.006;2022-08-30T03:13:25;3.55;;;3.03;;
25615;SDS011;13482;48.234;13.006;2022-08-30T03:15:53;3.15;;;2.78;;
25615;SDS011;13482;48.234;13.006;2022-08-30T03:18:20;4.82;;;2.83;;
25615;SDS011;13482;48.234;13.006;2022-08-30T03:20:49;3.85;;;2.92;;
25615;SDS011;13482;48.234;13.006;2022-08-30T03:23:21;4.00;;;2.95;;
25615;SDS011;13482;48.234;13.006;2022-08-30T03:25:49;3.83;;;3.10;;
25615;SDS011;13482;48.234;13.006;2022-08-30T03:28:18;4.53;;;3.35;;
25615;SDS011;13482;48.234;13.006;2022-08-30T03:30:46;3.67;;;2.85;;
25615;SDS011;13482;48.234;13.006;2022-08-30T03:33:13;3.80;;;3.15;;
25615;SDS011;13482;48.234;13.006;2022-08-30T03:35:43;4.28;;;3.10;;
25615;SDS011;13482;48.234;13.006;2022-08-30T03:38:10;3.90;;;2.80;;
25615;SDS011;13482;48.234;13.006;2022-08-30T03:40:38;4.28;;;3.25;;
25615;SDS011;13482;48.234;13.006;2022-08-30T03:43:05;5.63;;;3.45;;
25615;SDS011;13482;48.234;13.006;2022-08-30T03:45:33;6.05;;;3.45;;
25615;SDS011;13482;48.234;13.006;2022-08-30T03:48:01;5.70;;;3.30;;
25615;SDS011;13482;48.234;13.006;2022-08-30T03:50:29;7.35;;;3.22;;
25615;SDS011;13482;48.234;13.006;2022-08-30T03:52:56;5.70;;;3.40;;
25615;SDS011;13482;48.234;13.006;2022-08-30T03:55:27;4.45;;;3.67;;
25615;SDS011;13482;48.234;13.006;2022-08-30T03:57:55;4.90;;;3.97;;
25615;SDS011;13482;48.234;13.006;2022-08-30T04:00:23;4.55;;;3.60;;
25615;SDS011;13482;48.234;13.006;2022-08-30T04:02:50;4.43;;;3.30;;
25615;SDS011;13482;48.234;13.006;2022-08-30T04:05:18;4.55;;;3.35;;
25615;SDS011;13482;48.234;13.006;2022-08-30T04:07:46;4.93;;;3.60;;
25615;SDS011;13482;48.234;13.006;2022-08-30T04:10:13;4.40;;;3.42;;
25615;SDS011;13482;48.234;13.006;2022-08-30T04:12:41;3.63;;;3.03;;
25615;SDS011;13482;48.234;13.006;2022-08-30T04:15:15;4.45;;;3.42;;
25615;SDS011;13482;48.234;13.006;2022-08-30T04:17:44;4.28;;;3.28;;
25615;SDS011;13482;48.234;13.006;2022-08-30T04:20:11;4.30;;;3.65;;
25615;SDS011;13482;48.234;13.006;2022-08-30T04:22:39;3.97;;;3.47;;
25615;SDS011;13482;48.234;13.006;2022-08-30T04:25:06;5.45;;;3.78;;
25615;SDS011;13482;48.234;13.006;2022-08-30T04:27:41;5.65;;;3.53;;
25615;SDS011;13482;48.234;13.006;2022-08-30T04:30:10;4.88;;;3.72;;
25615;SDS011;13482;48.234;13.006;2022-08-30T04:32:39;5.05;;;3.50;;
25615;SDS011;13482;48.234;13.006;2022-08-30T04:35:06;4.93;;;3.80;;
25615;SDS011;13482;48.234;13.006;2022-08-30T04:37:35;7.45;;;4.13;;
25615;SDS011;13482;48.234;13.006;2022-08-30T04:40:04;4.72;;;3.15;;
25615;SDS011;13482;48.234;13.006;2022-08-30T04:42:33;4.30;;;3.85;;
25615;SDS011;13482;48.234;13.006;2022-08-30T04:45:02;5.63;;;3.40;;
25615;SDS011;13482;48.234;13.006;2022-08-30T04:47:32;3.90;;;3.15;;
25615;SDS011;13482;48.234;13.006;2022-08-30T04:50:00;4.05;;;2.97;;
25615;SDS011;13482;48.234;13.006;2022-08-30T04:52:29;4.70;;;3.05;;
25615;SDS011;13482;48.234;13.006;2022-08-30T04:54:56;4.68;;;3.70;;
25615;SDS011;13482;48.234;13.006;2022-08-30T04:57:25;4.30;;;3.33;;
25615;SDS011;13482;48.234;13.006;2022-08-30T04:59:52;7.88;;;3.95;;
25615;SDS011;13482;48.234;13.006;2022-08-30T05:02:20;6.63;;;3.92;;
25615;SDS011;13482;48.234;13.006;2022-08-30T05:04:48;4.47;;;3.60;;
25615;SDS011;13482;48.234;13.006;2022-08-30T05:07:34;7.75;;;3.53;;
25615;SDS011;13482;48.234;13.006;2022-08-30T05:10:02;4.70;;;3.50;;
25615;SDS011;13482;48.234;13.006;2022-08-30T05:12:36;3.88;;;3.20;;
25615;SDS011;13482;48.234;13.006;2022-08-30T05:15:04;3.65;;;2.92;;
25615;SDS011;13482;48.234;13.006;2022-08-30T05:17:32;4.03;;;3.25;;
25615;SDS011;13482;48.234;13.006;2022-08-30T05:20:00;7.18;;;3.80;;
25615;SDS011;13482;48.234;13.006;2022-08-30T05:22:27;5.40;;;3.90;;
25615;SDS011;13482;48.234;13.006;2022-08-30T05:24:55;4.03;;;3.63;;
25615;SDS011;13482;48.234;13.006;2022-08-30T05:27:22;5.05;;;4.15;;
25615;SDS011;13482;48.234;13.006;2022-08-30T05:29:49;4.03;;;3.63;;
25615;SDS011;13482;48.234;13.006;2022-08-30T05:32:16;4.22;;;3.55;;
25615;SDS011;13482;48.234;13.006;2022-08-30T05:34:44;4.35;;;3.65;;
25615;SDS011;13482;48.234;13.006;2022-08-30T05:37:11;3.83;;;3.30;;
25615;SDS011;13482;48.234;13.006;2022-08-30T05:39:38;4.03;;;3.30;;
25615;SDS011;13482;48.234;13.006;2022-08-30T05:42:16;3.63;;;3.15;;
25615;SDS011;13482;48.234;13.006;2022-08-30T05:44:44;3.83;;;3.42;;
25615;SDS011;13482;48.234;13.006;2022-08-30T05:47:12;3.72;;;3.33;;
25615;SDS011;13482;48.234;13.006;2022-08-30T05:49:40;3.70;;;3.13;;
25615;SDS011;13482;48.234;13.006;2022-08-30T05:52:07;3.53;;;3.10;;
25615;SDS011;13482;48.234;13.006;2022-08-30T05:54:34;4.15;;;3.03;;
25615;SDS011;13482;48.234;13.006;2022-08-30T05:57:01;3.78;;;2.97;;
25615;SDS011;13482;48.234;13.006;2022-08-30T05:59:28;3.60;;;3.05;;
25615;SDS011;13482;48.234;13.006;2022-08-30T06:01:56;5.20;;;2.88;;
25615;SDS011;13482;48.234;13.006;2022-08-30T06:04:24;3.30;;;2.80;;
25615;SDS011;13482;48.234;13.006;2022-08-30T06:06:52;3.22;;;2.92;;
25615;SDS011;13482;48.234;13.006;2022-08-30T06:09:19;3.80;;;3.00;;
25615;SDS011;13482;48.234;13.006;2022-08-30T06:11:46;3.15;;;2.85;;
25615;SDS011;13482;48.234;13.006;2022-08-30T06:14:13;4.47;;;2.75;;
25615;SDS011;13482;48.234;13.006;2022-08-30T06:16:41;3.38;;;2.92;;
25615;SDS011;13482;48.234;13.006;2022-08-30T06:19:11;3.50;;;3.20;;
25615;SDS011;13482;48.234;13.006;2022-08-30T06:21:40;3.17;;;2.88;;
25615;SDS011;13482;48.234;13.006;2022-08-30T06:24:09;3.28;;;2.90;;
25615;SDS011;13482;48.234;13.006;2022-08-30T06:26:38;3.50;;;2.90;;
25615;SDS011;13482;48.234;13.006;2022-08-30T06:29:10;3.88;;;2.97;;
25615;SDS011;13482;48.234;13.006;2022-08-30T06:31:41;4.32;;;3.42;;
25615;SDS011;13482;48.234;13.006;2022-08-30T06:34:08;4.07;;;3.15;;
25615;SDS011;13482;48.234;13.006;2022-08-30T06:36:35;4.07;;;3.40;;
25615;SDS011;13482;48.234;13.006;2022-08-30T06:39:04;4.78;;;3.40;;
25615;SDS011;13482;48.234;13.006;2022-08-30T06:41:32;5.10;;;3.78;;
25615;SDS011;13482;48.234;13.006;2022-08-30T06:44:03;3.70;;;3.30;;
25615;SDS011;13482;48.234;13.006;2022-08-30T06:46:33;4.30;;;3.90;;
25615;SDS011;13482;48.234;13.006;2022-08-30T06:49:03;4.05;;;3.63;;
25615;SDS011;13482;48.234;13.006;2022-08-30T06:51:35;4.10;;;3.38;;
25615;SDS011;13482;48.234;13.006;2022-08-30T06:54:05;4.15;;;3.60;;
25615;SDS011;13482;48.234;13.006;2022-08-30T06:56:37;5.38;;;4.07;;
25615;SDS011;13482;48.234;13.006;2022-08-30T06:59:23;4.22;;;3.67;;
25615;SDS011;13482;48.234;13.006;2022-08-30T07:01:52;4.45;;;3.83;;
25615;SDS011;13482;48.234;13.006;2022-08-30T07:04:21;5.47;;;4.22;;
25615;SDS011;13482;48.234;13.006;2022-08-30T07:06:49;4.65;;;4.15;;
25615;SDS011;13482;48.234;13.006;2022-08-30T07:09:17;4.90;;;4.40;;
25615;SDS011;13482;48.234;13.006;2022-08-30T07:11:48;4.85;;;4.40;;
25615;SDS011;13482;48.234;13.006;2022-08-30T07:14:16;5.72;;;3.97;;
25615;SDS011;13482;48.234;13.006;2022-08-30T07:16:45;4.70;;;4.22;;
25615;SDS011;13482;48.234;13.006;2022-08-30T07:21:46;5.05;;;4.22;;
25615;SDS011;13482;48.234;13.006;2022-08-30T07:24:14;5.05;;;4.43;;
25615;SDS011;13482;48.234;13.006;2022-08-30T07:26:45;5.03;;;4.53;;
25615;SDS011;13482;48.234;13.006;2022-08-30T07:29:17;6.18;;;4.80;;
25615;SDS011;13482;48.234;13.006;2022-08-30T07:31:46;6.65;;;5.30;;
25615;SDS011;13482;48.234;13.006;2022-08-30T07:34:14;6.30;;;5.40;;
25615;SDS011;13482;48.234;13.006;2022-08-30T07:36:41;5.65;;;5.05;;
25615;SDS011;13482;48.234;13.006;2022-08-30T07:39:08;6.28;;;5.13;;
25615;SDS011;13482;48.234;13.006;2022-08-30T07:41:36;6.03;;;5.15;;
25615;SDS011;13482;48.234;13.006;2022-08-30T07:44:05;6.05;;;5.30;;
25615;SDS011;13482;48.234;13.006;2022-08-30T07:46:34;8.45;;;5.30;;
25615;SDS011;13482;48.234;13.006;2022-08-30T07:49:03;5.63;;;5.00;;
25615;SDS011;13482;48.234;13.006;2022-08-30T07:51:36;6.28;;;5.28;;
25615;SDS011;13482;48.234;13.006;2022-08-30T07:54:05;6.20;;;5.22;;
25615;SDS011;13482;48.234;13.006;2022-08-30T07:56:32;5.80;;;5.15;;
25615;SDS011;13482;48.234;13.006;2022-08-30T07:59:00;6.03;;;5.43;;
25615;SDS011;13482;48.234;13.006;2022-08-30T08:01:27;5.45;;;4.88;;
25615;SDS011;13482;48.234;13.006;2022-08-30T08:03:54;5.88;;;5.07;;
25615;SDS011;13482;48.234;13.006;2022-08-30T08:06:22;5.80;;;5.20;;
25615;SDS011;13482;48.234;13.006;2022-08-30T08:08:50;7.15;;;5.00;;
25615;SDS011;13482;48.234;13.006;2022-08-30T08:11:21;5.70;;;5.00;;
25615;SDS011;13482;48.234;13.006;2022-08-30T08:13:54;5.88;;;5.15;;
25615;SDS011;13482;48.234;13.006;2022-08-30T08:16:22;6.03;;;4.63;;
25615;SDS011;13482;48.234;13.006;2022-08-30T08:18:52;5.25;;;4.75;;
25615;SDS011;13482;48.234;13.006;2022-08-30T08:21:21;6.65;;;5.15;;
25615;SDS011;13482;48.234;13.006;2022-08-30T08:23:49;5.25;;;4.75;;
25615;SDS011;13482;48.234;13.006;2022-08-30T08:26:17;7.63;;;4.68;;
25615;SDS011;13482;48.234;13.006;2022-08-30T08:28:45;5.43;;;4.50;;
25615;SDS011;13482;48.234;13.006;2022-08-30T08:31:17;4.55;;;4.15;;
25615;SDS011;13482;48.234;13.006;2022-08-30T08:33:54;8.23;;;4.25;;
25615;SDS011;13482;48.234;13.006;2022-08-30T08:36:24;5.05;;;4.53;;
25615;SDS011;13482;48.234;13.006;2022-08-30T08:38:52;6.50;;;4.20;;
25615;SDS011;13482;48.234;13.006;2022-08-30T08:44:27;4.90;;;4.40;;
25615;SDS011;13482;48.234;13.006;2022-08-30T08:50:17;4.72;;;4.32;;
25615;SDS011;13482;48.234;13.006;2022-08-30T08:52:56;4.68;;;4.25;;
25615;SDS011;13482;48.234;13.006;2022-08-30T08:56:09;4.03;;;3.63;;
25615;SDS011;13482;48.234;13.006;2022-08-30T08:58:42;3.90;;;3.40;;
25615;SDS011;13482;48.234;13.006;2022-08-30T09:03:42;3.53;;;3.10;;
25615;SDS011;13482;48.234;13.006;2022-08-30T09:06:20;3.78;;;2.97;;
25615;SDS011;13482;48.234;13.006;2022-08-30T09:09:30;5.43;;;3.63;;
25615;SDS011;13482;48.234;13.006;2022-08-30T09:12:06;3.92;;;3.53;;
25615;SDS011;13482;48.234;13.006;2022-08-30T09:14:37;3.78;;;3.40;;
25615;SDS011;13482;48.234;13.006;2022-08-30T09:17:15;3.72;;;3.38;;
25615;SDS011;13482;48.234;13.006;2022-08-30T09:19:45;3.72;;;3.42;;
25615;SDS011;13482;48.234;13.006;2022-08-30T09:22:36;3.63;;;3.33;;
25615;SDS011;13482;48.234;13.006;2022-08-30T09:27:40;3.33;;;3.03;;
25615;SDS011;13482;48.234;13.006;2022-08-30T09:30:19;3.95;;;3.55;;
25615;SDS011;13482;48.234;13.006;2022-08-30T09:38:06;3.90;;;3.47;;
25615;SDS011;13482;48.234;13.006;2022-08-30T09:40:47;4.57;;;3.25;;
25615;SDS011;13482;48.234;13.006;2022-08-30T09:43:25;3.45;;;3.15;;
25615;SDS011;13482;48.234;13.006;2022-08-30T09:48:36;3.42;;;3.13;;
25615;SDS011;13482;48.234;13.006;2022-08-30T09:57:02;3.17;;;2.72;;
25615;SDS011;13482;48.234;13.006;2022-08-30T10:00:03;4.28;;;3.33;;
25615;SDS011;13482;48.234;13.006;2022-08-30T10:05:31;4.05;;;3.10;;
25615;SDS011;13482;48.234;13.006;2022-08-30T10:11:02;3.40;;;3.10;;
25615;SDS011;13482;48.234;13.006;2022-08-30T10:17:06;3.30;;;3.00;;
25615;SDS011;13482;48.234;13.006;2022-08-30T10:20:11;3.20;;;2.80;;
25615;SDS011;13482;48.234;13.006;2022-08-30T10:23:17;2.88;;;2.50;;
25615;SDS011;13482;48.234;13.006;2022-08-30T10:25:52;3.22;;;2.88;;
25615;SDS011;13482;48.234;13.006;2022-08-30T10:28:34;3.58;;;2.88;;
25615;SDS011;13482;48.234;13.006;2022-08-30T10:31:16;2.95;;;2.63;;
25615;SDS011;13482;48.234;13.006;2022-08-30T10:34:02;4.40;;;2.47;;
25615;SDS011;13482;48.234;13.006;2022-08-30T10:36:47;2.60;;;2.40;;
25615;SDS011;13482;48.234;13.006;2022-08-30T10:39:24;3.58;;;2.63;;
25615;SDS011;13482;48.234;13.006;2022-08-30T10:42:05;3.95;;;2.90;;
25615;SDS011;13482;48.234;13.006;2022-08-30T10:44:44;3.67;;;3.03;;
25615;SDS011;13482;48.234;13.006;2022-08-30T10:47:27;3.42;;;2.95;;
25615;SDS011;13482;48.234;13.006;2022-08-30T10:50:24;3.15;;;2.85;;
25615;SDS011;13482;48.234;13.006;2022-08-30T10:53:50;3.20;;;2.83;;
25615;SDS011;13482;48.234;13.006;2022-08-30T10:56:05;3.42;;;2.95;;
25615;SDS011;13482;48.234;13.006;2022-08-30T10:58:40;3.45;;;2.75;;
25615;SDS011;13482;48.234;13.006;2022-08-30T11:13:00;2.95;;;2.60;;
25615;SDS011;13482;48.234;13.006;2022-08-30T11:15:52;2.70;;;2.50;;
25615;SDS011;13482;48.234;13.006;2022-08-30T11:18:28;3.55;;;2.47;;
25615;SDS011;13482;48.234;13.006;2022-08-30T11:24:23;2.78;;;2.45;;
25615;SDS011;13482;48.234;13.006;2022-08-30T11:26:54;3.50;;;2.53;;
25615;SDS011;13482;48.234;13.006;2022-08-30T11:29:35;2.65;;;2.45;;
25615;SDS011;13482;48.234;13.006;2022-08-30T11:40:03;3.15;;;2.25;;
25615;SDS011;13482;48.234;13.006;2022-08-30T11:42:42;2.72;;;2.10;;
25615;SDS011;13482;48.234;13.006;2022-08-30T12:02:01;2.65;;;2.25;;
25615;SDS011;13482;48.234;13.006;2022-08-30T12:04:44;2.88;;;2.05;;
25615;SDS011;13482;48.234;13.006;2022-08-30T12:07:55;2.28;;;1.95;;
25615;SDS011;13482;48.234;13.006;2022-08-30T12:10:24;2.22;;;2.03;;
25615;SDS011;13482;48.234;13.006;2022-08-30T12:16:10;2.28;;;2.00;;
25615;SDS011;13482;48.234;13.006;2022-08-30T12:18:53;3.63;;;2.30;;
25615;SDS011;13482;48.234;13.006;2022-08-30T12:21:38;2.72;;;2.03;;
25615;SDS011;13482;48.234;13.006;2022-08-30T12:24:45;2.78;;;2.08;;
25615;SDS011;13482;48.234;13.006;2022-08-30T12:30:03;4.25;;;2.15;;
25615;SDS011;13482;48.234;13.006;2022-08-30T12:32:41;2.65;;;2.17;;
25615;SDS011;13482;48.234;13.006;2022-08-30T12:35:20;2.58;;;2.00;;
25615;SDS011;13482;48.234;13.006;2022-08-30T12:38:00;2.55;;;1.90;;
25615;SDS011;13482;48.234;13.006;2022-08-30T12:40:32;2.67;;;2.08;;
25615;SDS011;13482;48.234;13.006;2022-08-30T12:43:04;2.60;;;2.05;;
25615;SDS011;13482;48.234;13.006;2022-08-30T12:45:45;2.25;;;1.90;;
25615;SDS011;13482;48.234;13.006;2022-08-30T12:48:17;2.15;;;1.90;;
25615;SDS011;13482;48.234;13.006;2022-08-30T12:50:54;2.20;;;1.90;;
25615;SDS011;13482;48.234;13.006;2022-08-30T12:53:29;2.25;;;1.85;;
25615;SDS011;13482;48.234;13.006;2022-08-30T12:56:15;2.80;;;2.13;;
25615;SDS011;13482;48.234;13.006;2022-08-30T12:59:03;2.22;;;1.83;;
25615;SDS011;13482;48.234;13.006;2022-08-30T13:01:31;2.90;;;2.08;;
25615;SDS011;13482;48.234;13.006;2022-08-30T13:06:49;2.65;;;1.75;;
25615;SDS011;13482;48.234;13.006;2022-08-30T13:09:25;2.45;;;1.88;;
25615;SDS011;13482;48.234;13.006;2022-08-30T13:12:29;2.70;;;1.70;;
25615;SDS011;13482;48.234;13.006;2022-08-30T13:15:13;2.22;;;1.92;;
25615;SDS011;13482;48.234;13.006;2022-08-30T13:18:09;2.10;;;1.77;;
25615;SDS011;13482;48.234;13.006;2022-08-30T13:24:05;2.25;;;2.00;;
25615;SDS011;13482;48.234;13.006;2022-08-30T13:26:35;2.35;;;2.00;;
25615;SDS011;13482;48.234;13.006;2022-08-30T13:29:05;1.95;;;1.75;;
25615;SDS011;13482;48.234;13.006;2022-08-30T13:31:43;2.63;;;1.98;;
25615;SDS011;13482;48.234;13.006;2022-08-30T13:34:11;2.85;;;1.90;;
25615;SDS011;13482;48.234;13.006;2022-08-30T13:36:43;2.10;;;1.83;;
25615;SDS011;13482;48.234;13.006;2022-08-30T13:39:16;2.67;;;2.00;;
25615;SDS011;13482;48.234;13.006;2022-08-30T13:41:47;2.60;;;1.90;;
25615;SDS011;13482;48.234;13.006;2022-08-30T13:44:16;2.42;;;2.00;;
25615;SDS011;13482;48.234;13.006;2022-08-30T13:46:46;2.20;;;1.80;;
25615;SDS011;13482;48.234;13.006;2022-08-30T13:49:22;2.30;;;2.00;;
25615;SDS011;13482;48.234;13.006;2022-08-30T13:52:10;2.50;;;1.95;;
25615;SDS011;13482;48.234;13.006;2022-08-30T13:54:48;3.35;;;2.00;;
25615;SDS011;13482;48.234;13.006;2022-08-30T13:57:18;1.85;;;1.65;;
25615;SDS011;13482;48.234;13.006;2022-08-30T14:00:14;2.20;;;1.90;;
25615;SDS011;13482;48.234;13.006;2022-08-30T14:02:45;2.08;;;1.63;;
25615;SDS011;13482;48.234;13.006;2022-08-30T14:05:30;3.05;;;1.77;;
25615;SDS011;13482;48.234;13.006;2022-08-30T14:08:26;3.10;;;1.80;;
25615;SDS011;13482;48.234;13.006;2022-08-30T14:11:16;3.92;;;1.70;;
25615;SDS011;13482;48.234;13.006;2022-08-30T14:13:47;2.03;;;1.65;;
25615;SDS011;13482;48.234;13.006;2022-08-30T14:16:41;3.03;;;1.77;;
25615;SDS011;13482;48.234;13.006;2022-08-30T14:19:10;1.90;;;1.70;;
25615;SDS011;13482;48.234;13.006;2022-08-30T14:21:40;2.38;;;1.80;;
25615;SDS011;13482;48.234;13.006;2022-08-30T14:24:11;2.03;;;1.45;;
25615;SDS011;13482;48.234;13.006;2022-08-30T14:26:46;2.22;;;1.73;;
25615;SDS011;13482;48.234;13.006;2022-08-30T14:29:18;2.00;;;1.60;;
25615;SDS011;13482;48.234;13.006;2022-08-30T14:31:55;2.15;;;1.70;;
25615;SDS011;13482;48.234;13.006;2022-08-30T14:34:25;3.15;;;1.88;;
25615;SDS011;13482;48.234;13.006;2022-08-30T14:36:52;3.05;;;1.80;;
25615;SDS011;13482;48.234;13.006;2022-08-30T14:39:21;2.38;;;1.80;;
25615;SDS011;13482;48.234;13.006;2022-08-30T14:41:52;2.35;;;1.52;;
25615;SDS011;13482;48.234;13.006;2022-08-30T14:44:21;2.33;;;1.80;;
25615;SDS011;13482;48.234;13.006;2022-08-30T14:46:50;2.42;;;1.83;;
25615;SDS011;13482;48.234;13.006;2022-08-30T14:49:18;2.00;;;1.70;;
25615;SDS011;13482;48.234;13.006;2022-08-30T14:51:46;2.08;;;1.73;;
25615;SDS011;13482;48.234;13.006;2022-08-30T14:54:17;2.10;;;1.73;;
25615;SDS011;13482;48.234;13.006;2022-08-30T14:56:50;2.33;;;1.70;;
25615;SDS011;13482;48.234;13.006;2022-08-30T14:59:17;2.53;;;1.80;;
25615;SDS011;13482;48.234;13.006;2022-08-30T15:01:45;2.28;;;1.60;;
25615;SDS011;13482;48.234;13.006;2022-08-30T15:04:13;1.80;;;1.60;;
25615;SDS011;13482;48.234;13.006;2022-08-30T15:06:43;2.22;;;1.80;;
25615;SDS011;13482;48.234;13.006;2022-08-30T15:11:49;1.70;;;1.50;;
25615;SDS011;13482;48.234;13.006;2022-08-30T15:16:51;2.40;;;1.63;;
25615;SDS011;13482;48.234;13.006;2022-08-30T15:19:21;1.92;;;1.50;;
25615;SDS011;13482;48.234;13.006;2022-08-30T15:21:49;2.25;;;1.60;;
25615;SDS011;13482;48.234;13.006;2022-08-30T15:24:19;2.22;;;1.50;;
25615;SDS011;13482;48.234;13.006;2022-08-30T15:26:55;2.00;;;1.60;;
25615;SDS011;13482;48.234;13.006;2022-08-30T15:29:25;2.42;;;1.60;;
25615;SDS011;13482;48.234;13.006;2022-08-30T15:31:55;2.30;;;1.75;;
25615;SDS011;13482;48.234;13.006;2022-08-30T15:34:23;3.13;;;1.80;;
25615;SDS011;13482;48.234;13.006;2022-08-30T15:36:53;2.03;;;1.50;;
25615;SDS011;13482;48.234;13.006;2022-08-30T15:39:21;1.73;;;1.48;;
25615;SDS011;13482;48.234;13.006;2022-08-30T15:41:50;2.13;;;1.55;;
25615;SDS011;13482;48.234;13.006;2022-08-30T15:44:25;2.13;;;1.55;;
25615;SDS011;13482;48.234;13.006;2022-08-30T15:46:52;2.10;;;1.50;;
25615;SDS011;13482;48.234;13.006;2022-08-30T15:49:21;1.60;;;1.40;;
25615;SDS011;13482;48.234;13.006;2022-08-30T15:51:49;1.77;;;1.33;;
25615;SDS011;13482;48.234;13.006;2022-08-30T15:54:20;1.90;;;1.60;;
25615;SDS011;13482;48.234;13.006;2022-08-30T15:56:49;2.20;;;1.60;;
25615;SDS011;13482;48.234;13.006;2022-08-30T15:59:25;2.05;;;1.67;;
25615;SDS011;13482;48.234;13.006;2022-08-30T16:01:55;1.80;;;1.63;;
25615;SDS011;13482;48.234;13.006;2022-08-30T16:04:24;2.53;;;1.50;;
25615;SDS011;13482;48.234;13.006;2022-08-30T16:06:52;1.65;;;1.35;;
25615;SDS011;13482;48.234;13.006;2022-08-30T16:09:19;2.53;;;1.60;;
25615;SDS011;13482;48.234;13.006;2022-08-30T16:11:47;2.22;;;1.60;;
25615;SDS011;13482;48.234;13.006;2022-08-30T16:14:15;2.20;;;1.70;;
25615;SDS011;13482;48.234;13.006;2022-08-30T16:16:43;1.88;;;1.60;;
25615;SDS011;13482;48.234;13.006;2022-08-30T16:19:11;2.47;;;1.63;;
25615;SDS011;13482;48.234;13.006;2022-08-30T16:21:39;2.00;;;1.70;;
25615;SDS011;13482;48.234;13.006;2022-08-30T16:24:09;1.75;;;1.58;;
25615;SDS011;13482;48.234;13.006;2022-08-30T16:26:39;3.00;;;1.80;;
25615;SDS011;13482;48.234;13.006;2022-08-30T16:29:08;2.15;;;1.92;;
25615;SDS011;13482;48.234;13.006;2022-08-30T16:31:38;2.97;;;1.60;;
25615;SDS011;13482;48.234;13.006;2022-08-30T16:34:10;2.55;;;1.80;;
25615;SDS011;13482;48.234;13.006;2022-08-30T16:36:38;2.13;;;1.67;;
25615;SDS011;13482;48.234;13.006;2022-08-30T16:39:08;3.58;;;1.80;;
25615;SDS011;13482;48.234;13.006;2022-08-30T16:41:38;2.10;;;1.65;;
25615;SDS011;13482;48.234;13.006;2022-08-30T16:44:06;2.50;;;1.95;;
25615;SDS011;13482;48.234;13.006;2022-08-30T16:46:36;1.60;;;1.50;;